Whitesville, NY (14897)

4:25 AM EDT on July 28, 2014 (GMT -0400)
Wellsville Municipal-Tarantine (KELZ) Elev 2123 ft | 42.11 °N, 77.98 °W | Change Station
Active Advisory: Areal Flood Watch

Current weather conditions updated 29 minutes ago

Light Rain
Light Rain
64 °F
Feels Like 64 °F
N
6
Wind Variable Wind from NW

Today is forecast to be Much Cooler than yesterday. Rain with a few rumbles of thunder.

Today
High -- | Low -- °F
--% Chance of Precip.
Yesterday
High -- | Low -- °F
Precip. -- in
6:00 AM 8:34 PM
New Moon, 2% visible
Pressure 29.57 in
Visibility 10.0 miles
Clouds Mostly Cloudy 1700 ft
Overcast 2600 ft
Dew Point 59 °F
Humidity 84%
Rainfall 0.04 in
Snow Depth Not available.
UV 0 out of 12
Pollen 5.20 out of 12
Ozone Good
PM2.5 Good
Flu Activity Not available.
METAR KELZ 280756Z AUTO 32005KT 10SM -RA BKN017 OVC026 18/15 A2962 RMK AO2 RAB38 SLP013 P0001 T01780150

More Conditions Fewer Conditions

Pressure 29.57 in
Visibility 10.0 miles
Clouds Mostly Cloudy 1700 ft
Overcast 2600 ft
Dew Point 59 °F
Humidity 84%
Rainfall 0.04 in
Snow Depth Not available.
UV 0 out of 12
Pollen 5.20 out of 12
Ozone Good
PM2.5 Good
Flu Activity Not available.
METAR KELZ 280756Z AUTO 32005KT 10SM -RA BKN017 OVC026 18/15 A2962 RMK AO2 RAB38 SLP013 P0001 T01780150

More Conditions Fewer Conditions

10-Day Weather Forecast

Almanac

Astronomy

Jul. 28, 2014 Rise Set
Actual Time 6:00 AM EDT 8:34 PM EDT
Civil Twilight 5:28 AM EDT 9:06 PM EDT
Nautical Twilight 4:48 AM EDT 9:45 PM EDT
Astronomical Twilight 4:03 AM EDT 10:30 PM EDT
Moon 7:42 AM EDT 9:11 PM EDT
Length of Visible Light 15h 37m
Length of Day
14h 33m
Tomorrow will be 2m 2s shorter.
New Moon, 2% of the Moon is Illuminated
Today
New Moon
Aug 3
First Quarter
Aug 10
Full
Aug 17
Last Quarter
Aug 25
New

Today's Extremes

State Highs State Lows

Community

WunderPhotos

Upload Photos

1,738,294 photos uploaded!

Nearby

Air Quality

  Air Quality AQ Index Pollutant
Yesterday Moderate
PM2.5
Yesterday Good
OZONE
Current Good
PM2.5
Current Good
OZONE
Monday Good
OZONE
Monday Good
PM2.5

Snow Depth

Station Depth Elevation
No new snow has been reported.

Earthquake Activity

City Distance Mag. Time & Date
No recent earthquake activity has been reported nearby.
Minimum magnitude displayed is 2.5.

Coastal Water Temperatures

Place Temperature
No Stations Reporting

Nearby Weather Stations

Station Location Temp. Dew Point Humidity Wind Precip. Elev Updated Type
Ardachy Farm, Alfred Station, NY 61.7 °F 61 °F 99% North  at  3.1 mph 0.00 in / hr 1877 ft 4:24 AM EDT Normal
Academy Corners, Deerfield Township, PA, Knoxville, PA 64.2 °F 62 °F 94% South  at  0.0 mph 0.00 in / hr 1224 ft 4:21 AM EDT Rapid Fire
Sweden Valley, Coudersport, PA 61.9 °F 61 °F 98% South  at  0.0 mph 0.00 in / hr 1796 ft 4:20 AM EDT Normal
HADS ALMOND LAKE NEAR HORNELL NY, Hornell, NY 65 °F - - North  at  - 0.00 in / hr 1325 ft 3:00 AM EDT MADIS

Show More Stations Show Fewer Stations